AIRPORT_AIRPORT_METAR
METAR FOR DTTJ
ADDS - METARS form results

(1207 UTC 28 May 2020)
Data provider http://aviationweather.gov/metar/data/
 
METAR text: DTTJ 281200Z 05012KT 9999 SCT020TCU 24/12 Q1023
Conditions at: DTTJ (DJERBA MELLITA , TN) observed 1200 UTC 28 May 2020
Temperature: 24.0°C (75°F)
Dewpoint: 12.0°C (54°F) [RH = 47%]
Pressure (altimeter): 30.21 inches Hg (1023.0 mb)
Winds: from the NE (50 degrees) at 14 MPH (12 knots; 6.2 m/s)
Visibility: 6 or more miles (10+ km)
Ceiling: at least 12,000 feet AGL
Clouds: scattered clouds at 2000 feet AGL
Weather: no significant weather observed at this time

METAR text: DTTJ 281130Z 04012KT 020V080 9999 SCT020TCU 24/13 Q1023
Conditions at: DTTJ (DJERBA MELLITA , TN) observed 1130 UTC 28 May 2020
Temperature: 24.0°C (75°F)
Dewpoint: 13.0°C (55°F) [RH = 50%]
Pressure (altimeter): 30.21 inches Hg (1023.0 mb)
Winds: from the NE (40 degrees) at 14 MPH (12 knots; 6.2 m/s)
Visibility: 6 or more miles (10+ km)
Ceiling: at least 12,000 feet AGL
Clouds: scattered clouds at 2000 feet AGL
Weather: no significant weather observed at this time

Forecast for: DTTJ (DJERBA MELLITA , TN)
Text: TAF DTTJ 281100Z 2812/2912 06012KT 9999 SCT020
Forecast period: 1200 to 1800 UTC 28 May 2020
Forecast type: FROM: standard forecast or significant change
Winds: from the ENE (60 degrees) at 14 MPH (12 knots; 6.2 m/s)
Visibility: 6 or more miles 10+ km)
Ceiling: at least 12,000 feet AGL
Clouds: scattered clouds at 2000 feet AGL
Weather: no significant weather forecast for this period
Text: BECMG 2818/2820 13012KT
Forecast period: 1800 UTC 28 May 2020 to 1200 UTC 29 May 2020
Forecast type: BECOMING: Conditions expected to become as follows by 2000 UTC 28 May 2020
Winds: from the SE (130 degrees) at 14 MPH (12 knots; 6.2 m/s)
Visibility: 6 or more miles 10+ km)
Ceiling: at least 12,000 feet AGL
Clouds: scattered clouds at 2000 feet AGL
Weather: no significant weather forecast for this period

 AIRPORT_AIRPORT_MAP

 AIRPORT_RUNWAY_INFO
AIRPORT_RUNWAY 09 AIRPORT_RUNWAY_LENGTH 10171 ft AIRPORT_RUNWAY_WIDTH 148 ft
AIRPORT_RUNWAY_ELEVATION 9 ft AIRPORT_RUNWAY_THRESHOLD 0 ft AIRPORT_RUNWAY_HEADING 88
AIRPORT_RUNWAY 27 AIRPORT_RUNWAY_LENGTH 10171 ft AIRPORT_RUNWAY_WIDTH 148 ft
AIRPORT_RUNWAY_ELEVATION 18 ft AIRPORT_RUNWAY_THRESHOLD 0 ft AIRPORT_RUNWAY_HEADING 268

 AIRPORT_AIRPORT_FREQUENCIES
AIRPORT_AIRPORT_NAVAIDS_TYPE APP AIRPORT_AIRPORT_NAVAIDS_NAME DJERBA APP AIRPORT_AIRPORT_NAVAIDS_FREQ 120.3 MHZ
AIRPORT_AIRPORT_NAVAIDS_TYPE TWR AIRPORT_AIRPORT_NAVAIDS_NAME DJERBA TWR AIRPORT_AIRPORT_NAVAIDS_FREQ 118.15 MHZ

 AIRPORT_AIRPORT_NAVAIDS
AIRPORT_AIRPORT_NAVAIDS_TYPE VOR-DME AIRPORT_AIRPORT_NAVAIDS_NAME Djerba AIRPORT_AIRPORT_NAVAIDS_FREQ 112200 KHZ



Copyright © 2005-2020 - Virtuel Air Alsace - Tous droits réservés